Time;durP1;ratioP1;P1;durP2;ratioP2;P2;SDS_P1;SDS_P2;PMS_P1;PMS_P2;Temp;Humidity;BMP_temperature;BMP_pressure;BME280_temperature;BME280_humidity;BME280_pressure;Samples;Min_cycle;Max_cycle;Signal;HPM_P1;HPM_P2
2023/01/13 00:01:22;;;;;;;15.27;3.53;;;9.00;99.90;;;;;;5012289;28;20041;-40
2023/01/13 00:03:48;;;;;;;13.93;3.63;;;8.90;99.90;;;;;;5002409;28;20084;-42
2023/01/13 00:06:18;;;;;;;15.13;3.60;;;8.90;99.90;;;;;;5002528;28;20085;-40
2023/01/13 00:08:46;;;;;;;10.27;2.90;;;8.80;99.90;;;;;;4995092;28;20034;-40
2023/01/13 00:11:12;;;;;;;18.75;4.05;;;8.80;99.90;;;;;;5007478;28;20554;-42
2023/01/13 00:13:38;;;;;;;17.83;5.03;;;8.80;99.90;;;;;;5010555;28;20331;-40
2023/01/13 00:16:06;;;;;;;16.48;4.53;;;8.80;99.90;;;;;;5012125;28;20095;-41
2023/01/13 00:18:33;;;;;;;17.85;4.30;;;8.70;99.90;;;;;;5004793;28;20048;-42
2023/01/13 00:21:18;;;;;;;20.88;4.05;;;8.70;99.90;;;;;;5005567;28;20503;-40
2023/01/13 00:23:45;;;;;;;17.50;4.85;;;8.60;99.90;;;;;;5009033;28;20034;-39
2023/01/13 00:26:13;;;;;;;25.83;4.70;;;8.60;99.90;;;;;;5014237;28;20038;-40
2023/01/13 00:28:39;;;;;;;23.42;4.70;;;8.50;99.90;;;;;;5012653;28;20037;-40
2023/01/13 00:31:10;;;;;;;30.30;5.13;;;8.50;99.90;;;;;;5010555;28;20022;-39
2023/01/13 00:33:36;;;;;;;18.90;4.50;;;8.40;99.90;;;;;;5012959;28;20042;-39
2023/01/13 00:36:04;;;;;;;24.25;4.45;;;8.40;99.90;;;;;;5000364;28;20148;-41
2023/01/13 00:38:31;;;;;;;19.15;4.05;;;8.30;99.90;;;;;;5009362;28;20070;-41
2023/01/13 00:40:59;;;;;;;22.60;4.57;;;8.30;99.90;;;;;;5004098;28;20431;-39
2023/01/13 00:43:26;;;;;;;16.17;3.95;;;8.30;99.90;;;;;;5008903;28;20083;-39
2023/01/13 00:45:52;;;;;;;15.98;3.33;;;8.20;99.90;;;;;;5011675;28;20042;-39
2023/01/13 00:48:19;;;;;;;20.38;4.45;;;8.20;99.90;;;;;;5003547;28;20030;-39
2023/01/13 00:50:46;;;;;;;18.17;3.85;;;8.10;99.90;;;;;;5003302;28;20039;-39
2023/01/13 00:53:13;;;;;;;19.60;3.85;;;8.10;99.90;;;;;;5008986;28;20100;-39
2023/01/13 00:55:39;;;;;;;16.33;4.78;;;8.10;99.90;;;;;;5009008;28;20430;-41
2023/01/13 00:58:05;;;;;;;21.42;4.38;;;8.10;99.90;;;;;;5001287;28;20118;-42
2023/01/13 01:00:34;;;;;;;15.40;3.92;;;8.10;99.90;;;;;;5006661;28;20034;-40
2023/01/13 01:03:00;;;;;;;23.30;4.65;;;8.10;99.90;;;;;;5002020;28;20034;-41
2023/01/13 01:05:26;;;;;;;19.15;3.85;;;8.10;99.90;;;;;;5001629;28;20046;-40
2023/01/13 01:07:52;;;;;;;19.50;4.22;;;8.10;99.90;;;;;;5000321;28;20121;-39
2023/01/13 01:10:18;;;;;;;22.05;4.78;;;8.10;99.90;;;;;;5003154;28;20112;-39
2023/01/13 01:12:43;;;;;;;22.02;4.03;;;8.00;99.90;;;;;;5018087;28;20030;-41
2023/01/13 01:15:10;;;;;;;19.23;4.40;;;8.00;99.90;;;;;;5006469;28;20049;-39
2023/01/13 01:17:36;;;;;;;25.58;4.82;;;8.00;99.90;;;;;;5002485;28;20043;-39
2023/01/13 01:20:03;;;;;;;20.25;4.03;;;8.00;99.90;;;;;;5009012;28;20042;-42
2023/01/13 01:22:29;;;;;;;17.45;4.13;;;8.00;99.90;;;;;;5008543;28;20044;-40
2023/01/13 01:24:55;;;;;;;24.30;3.83;;;8.10;99.90;;;;;;5013410;28;20128;-40
2023/01/13 01:27:20;;;;;;;20.38;3.80;;;8.10;99.90;;;;;;5012257;28;20037;-39
2023/01/13 01:29:46;;;;;;;18.23;3.92;;;8.10;99.90;;;;;;5013980;28;20103;-39
2023/01/13 01:32:12;;;;;;;22.38;4.85;;;8.20;99.90;;;;;;5003210;28;20491;-40
2023/01/13 01:34:38;;;;;;;19.08;4.35;;;8.20;99.90;;;;;;5008409;28;20082;-39
2023/01/13 01:37:04;;;;;;;21.83;5.05;;;8.20;99.90;;;;;;5010842;28;20136;-39
2023/01/13 01:39:30;;;;;;;31.65;6.13;;;8.20;99.90;;;;;;5008851;28;20450;-39
2023/01/13 01:44:58;;;;;;;26.35;5.40;;;8.20;99.90;;;;;;5001373;28;20052;-39
2023/01/13 01:47:25;;;;;;;23.95;4.35;;;8.20;99.90;;;;;;5005535;28;20435;-41
2023/01/13 01:49:52;;;;;;;24.50;5.10;;;8.10;99.90;;;;;;5004328;28;20488;-39
2023/01/13 01:52:38;;;;;;;27.85;5.03;;;8.10;99.90;;;;;;5016685;28;20446;-41
2023/01/13 01:55:08;;;;;;;24.17;4.90;;;8.10;99.90;;;;;;5016854;28;20045;-39
2023/01/13 01:57:44;;;;;;;29.92;4.85;;;8.10;99.90;;;;;;4998200;28;20058;-41
2023/01/13 02:00:11;;;;;;;19.58;5.20;;;8.00;99.90;;;;;;5005969;28;20038;-39
2023/01/13 02:02:38;;;;;;;26.20;4.80;;;8.00;99.90;;;;;;4987463;28;20125;-41
2023/01/13 02:05:04;;;;;;;28.85;4.93;;;8.00;99.90;;;;;;5005542;28;20408;-39
2023/01/13 02:07:32;;;;;;;26.33;4.93;;;7.90;99.90;;;;;;5000539;28;20034;-38
2023/01/13 02:10:01;;;;;;;21.10;4.28;;;7.90;99.90;;;;;;5025135;28;20448;-40
2023/01/13 02:12:33;;;;;;;28.52;4.95;;;7.90;99.90;;;;;;5016908;28;20031;-41
2023/01/13 02:15:08;;;;;;;25.98;4.63;;;7.90;99.90;;;;;;5007518;28;20061;-41
2023/01/13 02:17:44;;;;;;;20.92;4.03;;;7.90;99.90;;;;;;5008613;28;20030;-41
2023/01/13 02:20:19;;;;;;;24.13;4.90;;;7.80;99.90;;;;;;5018115;28;20060;-39
2023/01/13 02:26:23;;;;;;;24.17;5.35;;;7.60;99.90;;;;;;5010002;28;20083;-39
2023/01/13 02:31:58;;;;;;;24.55;4.70;;;7.60;99.90;;;;;;5015491;28;20048;-40
2023/01/13 02:34:29;;;;;;;23.33;4.53;;;7.60;99.90;;;;;;5010246;28;20038;-40
2023/01/13 02:36:54;;;;;;;25.77;5.15;;;7.60;99.90;;;;;;4997703;28;20042;-39
2023/01/13 02:39:47;;;;;;;26.63;5.25;;;7.60;99.90;;;;;;4999366;28;20089;-39
2023/01/13 02:45:20;;;;;;;24.63;4.85;;;7.40;99.90;;;;;;5004406;28;20054;-39
2023/01/13 02:47:49;;;;;;;21.77;4.85;;;7.40;99.90;;;;;;5009924;28;20038;-42
2023/01/13 02:50:18;;;;;;;25.65;5.88;;;7.30;99.90;;;;;;4999196;28;20053;-39
2023/01/13 02:52:52;;;;;;;28.02;5.00;;;7.30;99.90;;;;;;5010410;28;20091;-40
2023/01/13 02:55:29;;;;;;;24.20;4.97;;;7.30;99.90;;;;;;5004183;28;20037;-39
2023/01/13 02:57:58;;;;;;;23.67;5.65;;;7.30;99.90;;;;;;5022717;28;20105;-39
2023/01/13 03:00:25;;;;;;;23.70;5.05;;;7.30;99.90;;;;;;4991714;28;20119;-41
2023/01/13 03:02:51;;;;;;;24.83;5.05;;;7.30;99.90;;;;;;4998439;28;20042;-39
2023/01/13 03:05:17;;;;;;;29.92;5.18;;;7.30;99.90;;;;;;5012560;28;20037;-38
2023/01/13 03:07:55;;;;;;;27.02;5.13;;;7.30;99.90;;;;;;5004621;28;20041;-39
2023/01/13 03:10:39;;;;;;;25.90;5.28;;;7.30;99.90;;;;;;5012962;28;20041;-39
2023/01/13 03:13:19;;;;;;;21.73;4.67;;;7.30;99.90;;;;;;5010106;28;20034;-40
2023/01/13 03:16:16;;;;;;;26.60;6.15;;;7.40;99.90;;;;;;5002534;28;20038;-39
2023/01/13 03:18:51;;;;;;;22.60;5.97;;;7.40;99.90;;;;;;5005951;28;20419;-38
2023/01/13 03:21:27;;;;;;;24.80;5.95;;;7.50;99.90;;;;;;5005257;28;20100;-39
2023/01/13 03:24:09;;;;;;;25.23;6.63;;;7.50;99.90;;;;;;5009762;28;20366;-39
2023/01/13 03:26:50;;;;;;;23.15;5.97;;;7.60;99.90;;;;;;5004528;28;20068;-40
2023/01/13 03:29:21;;;;;;;28.70;5.95;;;7.60;99.90;;;;;;5001561;28;20070;-39
2023/01/13 03:32:14;;;;;;;30.02;6.95;;;7.70;99.90;;;;;;5002275;28;20511;-39
2023/01/13 03:34:49;;;;;;;25.77;5.35;;;7.70;99.90;;;;;;5004410;28;20080;-39
2023/01/13 03:37:18;;;;;;;30.67;6.18;;;7.70;99.90;;;;;;5014915;28;20118;-39
2023/01/13 03:39:57;;;;;;;27.83;5.40;;;7.80;99.90;;;;;;5015630;28;20511;-38
2023/01/13 03:42:26;;;;;;;22.02;5.18;;;7.80;99.90;;;;;;5013133;28;20049;-41
2023/01/13 03:45:10;;;;;;;28.52;5.82;;;7.80;99.90;;;;;;5009463;28;20041;-39
2023/01/13 03:47:51;;;;;;;;;;;7.70;99.90;;;;;;5012959;28;20042;-39
2023/01/13 03:50:32;;;;;;;25.20;5.43;;;7.80;99.90;;;;;;5012130;28;20036;-39
2023/01/13 03:53:32;;;;;;;21.63;5.25;;;7.80;99.90;;;;;;5013398;28;20092;-39
2023/01/13 03:56:07;;;;;;;25.75;5.72;;;7.80;99.90;;;;;;5031748;28;20042;-39
2023/01/13 03:58:38;;;;;;;28.90;6.45;;;7.80;99.90;;;;;;5003851;28;20034;-39
2023/01/13 04:01:19;;;;;;;33.72;6.65;;;7.80;99.90;;;;;;5009228;28;20663;-39
2023/01/13 04:03:58;;;;;;;26.67;5.35;;;7.80;99.90;;;;;;5004969;28;20396;-39
2023/01/13 04:06:32;;;;;;;24.67;5.32;;;7.80;99.90;;;;;;5017776;28;20410;-41
2023/01/13 04:09:34;;;;;;;23.88;5.90;;;7.70;99.90;;;;;;4996820;28;20191;-39
2023/01/13 04:12:10;;;;;;;33.92;7.35;;;7.70;99.90;;;;;;5008323;28;20520;-42
2023/01/13 04:14:37;;;;;;;30.42;7.70;;;7.60;99.90;;;;;;5014497;28;20053;-40
2023/01/13 04:17:04;;;;;;;28.45;6.60;;;7.70;99.90;;;;;;5007556;28;20042;-39
2023/01/13 04:19:31;;;;;;;33.80;10.80;;;7.70;99.90;;;;;;5021533;28;20035;-40
2023/01/13 04:21:58;;;;;;;30.20;8.35;;;7.60;99.90;;;;;;5012467;28;20042;-39
2023/01/13 04:24:24;;;;;;;25.60;7.90;;;7.60;99.90;;;;;;5009965;28;20120;-39
2023/01/13 04:26:50;;;;;;;27.83;6.80;;;7.60;99.90;;;;;;5013517;28;20050;-41
2023/01/13 04:29:16;;;;;;;37.30;8.43;;;7.70;99.90;;;;;;5012868;28;20049;-39
2023/01/13 04:31:42;;;;;;;26.38;4.45;;;7.70;99.90;;;;;;5007395;28;20037;-38
2023/01/13 04:34:09;;;;;;;24.77;6.03;;;7.80;99.90;;;;;;5005430;28;20468;-39
2023/01/13 04:36:35;;;;;;;24.02;5.30;;;7.80;99.90;;;;;;5015306;28;20037;-39
2023/01/13 04:39:02;;;;;;;16.73;4.20;;;7.80;99.90;;;;;;5012260;28;20034;-39
2023/01/13 04:41:56;;;;;;;23.35;4.90;;;7.80;99.90;;;;;;5013350;28;20040;-38
2023/01/13 04:44:14;;;;;;;26.92;5.18;;;7.70;99.90;;;;;;5000542;28;20066;-39
2023/01/13 04:46:39;;;;;;;23.88;5.15;;;7.70;99.90;;;;;;5005664;28;20037;-38
2023/01/13 04:49:05;;;;;;;21.80;5.35;;;7.70;99.90;;;;;;5011660;28;20030;-39
2023/01/13 04:51:31;;;;;;;20.92;5.35;;;7.70;99.90;;;;;;5012080;28;20135;-39
2023/01/13 04:53:57;;;;;;;28.67;4.50;;;7.60;99.90;;;;;;4998745;28;20459;-39
2023/01/13 04:56:22;;;;;;;32.55;5.63;;;7.60;99.90;;;;;;5001257;28;20117;-38
2023/01/13 04:58:48;;;;;;;30.45;5.40;;;7.60;99.90;;;;;;4999155;28;20047;-38
2023/01/13 05:01:14;;;;;;;22.25;5.07;;;7.60;99.90;;;;;;5004911;28;20575;-39
2023/01/13 05:03:39;;;;;;;28.27;6.38;;;7.60;99.90;;;;;;5001339;28;20046;-40
2023/01/13 05:06:05;;;;;;;29.30;5.80;;;7.60;99.90;;;;;;5005714;28;20488;-39
2023/01/13 05:08:31;;;;;;;28.38;5.80;;;7.50;99.90;;;;;;4996773;28;20100;-39
2023/01/13 05:10:59;;;;;;;25.33;5.00;;;7.50;99.90;;;;;;5018481;28;20558;-39
2023/01/13 05:18:54;;;;;;;20.50;4.93;;;7.40;99.90;;;;;;5017621;28;20045;-43
2023/01/13 05:26:51;;;;;;;17.88;4.82;;;7.50;99.90;;;;;;5013171;28;20053;-39
2023/01/13 05:29:17;;;;;;;23.70;5.03;;;7.50;99.90;;;;;;5013333;28;20034;-39
2023/01/13 05:31:42;;;;;;;27.70;5.10;;;7.50;99.90;;;;;;5007720;28;20040;-39
2023/01/13 05:34:08;;;;;;;20.48;4.78;;;7.50;99.90;;;;;;4992834;28;20117;-40
2023/01/13 05:36:34;;;;;;;25.10;5.57;;;7.50;99.90;;;;;;5000099;28;20041;-42
2023/01/13 05:39:00;;;;;;;28.55;4.78;;;7.50;99.90;;;;;;5007027;28;20045;-40
2023/01/13 05:44:09;;;;;;;23.15;4.50;;;7.40;99.90;;;;;;5012469;28;20064;-40
2023/01/13 05:46:35;;;;;;;21.75;4.53;;;7.40;99.90;;;;;;5010886;28;20121;-39
2023/01/13 05:49:01;;;;;;;25.83;4.47;;;7.40;99.90;;;;;;5002752;28;20120;-40
2023/01/13 05:51:27;;;;;;;18.85;4.47;;;7.40;99.90;;;;;;5007753;28;20038;-40
2023/01/13 05:53:52;;;;;;;23.42;4.05;;;7.40;99.90;;;;;;5002778;28;20045;-38
2023/01/13 05:56:18;;;;;;;18.92;3.70;;;7.50;99.90;;;;;;5007748;28;20080;-38
2023/01/13 05:58:44;;;;;;;21.20;4.53;;;7.40;99.90;;;;;;5008036;28;20045;-38
2023/01/13 06:01:10;;;;;;;19.20;4.82;;;7.50;99.90;;;;;;5004025;28;20395;-38
2023/01/13 06:03:36;;;;;;;17.63;3.60;;;7.40;99.90;;;;;;5005512;28;20038;-37
2023/01/13 06:06:02;;;;;;;22.55;4.22;;;7.40;99.90;;;;;;5005807;28;20041;-38
2023/01/13 06:08:29;;;;;;;21.55;4.63;;;7.40;99.90;;;;;;5004728;28;20116;-38
2023/01/13 06:10:55;;;;;;;18.35;4.05;;;7.40;99.90;;;;;;5017809;28;20034;-40
2023/01/13 06:13:21;;;;;;;18.90;4.18;;;7.40;99.90;;;;;;4986028;28;20399;-38
2023/01/13 06:15:47;;;;;;;11.05;3.65;;;7.40;99.90;;;;;;5014511;28;20424;-38
2023/01/13 06:18:13;;;;;;;18.38;3.88;;;7.50;99.90;;;;;;5006635;28;20073;-38
2023/01/13 06:20:39;;;;;;;16.08;3.58;;;7.50;99.90;;;;;;5014523;28;20512;-40
2023/01/13 06:23:10;;;;;;;14.48;3.13;;;7.50;99.90;;;;;;5004571;28;20042;-40
2023/01/13 06:26:14;;;;;;;15.80;3.20;;;7.60;99.90;;;;;;4999869;28;20045;-37
2023/01/13 06:28:40;;;;;;;12.88;3.53;;;7.60;99.90;;;;;;5002388;28;20040;-38
2023/01/13 06:31:08;;;;;;;10.07;3.13;;;7.60;99.90;;;;;;5008187;28;20042;-38
2023/01/13 06:33:38;;;;;;;17.90;3.22;;;7.60;99.90;;;;;;5004492;28;20153;-38
2023/01/13 06:36:08;;;;;;;16.25;3.03;;;7.60;99.90;;;;;;5003389;28;20061;-38
2023/01/13 06:38:38;;;;;;;10.30;3.30;;;7.60;99.90;;;;;;5017355;28;20034;-38
2023/01/13 06:41:05;;;;;;;14.70;2.75;;;7.60;99.90;;;;;;5007464;28;20041;-38
2023/01/13 06:43:31;;;;;;;13.63;3.15;;;7.60;99.90;;;;;;5002807;28;20046;-39
2023/01/13 06:45:57;;;;;;;12.05;2.88;;;7.60;99.90;;;;;;5017387;28;20396;-38
2023/01/13 06:48:26;;;;;;;16.70;3.08;;;7.60;99.90;;;;;;4997847;28;20092;-38
2023/01/13 06:50:52;;;;;;;12.45;3.00;;;7.70;99.90;;;;;;5006595;28;20463;-38
2023/01/13 06:53:19;;;;;;;14.52;2.83;;;7.60;99.90;;;;;;4998590;28;20065;-40
2023/01/13 06:55:45;;;;;;;11.40;2.92;;;7.60;99.90;;;;;;5008266;28;20120;-38
2023/01/13 06:58:10;;;;;;;11.98;2.72;;;7.70;99.90;;;;;;4998671;28;20567;-39
2023/01/13 07:00:36;;;;;;;10.73;2.60;;;7.60;99.90;;;;;;5009959;28;20069;-39
2023/01/13 07:03:20;;;;;;;10.35;3.28;;;7.60;99.90;;;;;;4988844;28;20045;-40
2023/01/13 07:05:54;;;;;;;15.30;2.92;;;7.60;99.90;;;;;;5022997;28;20077;-38
2023/01/13 07:08:20;;;;;;;;;;;7.60;99.90;;;;;;5016452;28;20062;-38
2023/01/13 07:10:45;;;;;;;11.73;3.22;;;7.70;99.90;;;;;;5009750;28;20375;-38
2023/01/13 07:15:57;;;;;;;10.40;2.85;;;7.70;99.90;;;;;;5024605;28;20122;-39
2023/01/13 07:18:26;;;;;;;9.57;2.25;;;7.60;99.90;;;;;;5007180;28;20088;-38
2023/01/13 07:20:58;;;;;;;11.50;2.67;;;7.70;99.90;;;;;;5008943;28;20359;-39
2023/01/13 07:23:27;;;;;;;11.30;2.70;;;7.70;99.90;;;;;;5008744;28;20042;-39
2023/01/13 07:25:57;;;;;;;16.88;3.15;;;7.70;99.90;;;;;;5009336;28;20046;-39
2023/01/13 07:28:24;;;;;;;12.20;2.45;;;7.70;99.90;;;;;;5006383;28;20045;-40
2023/01/13 07:30:51;;;;;;;11.50;2.22;;;7.60;99.90;;;;;;4997920;28;20042;-38
2023/01/13 07:33:17;;;;;;;12.88;2.55;;;7.70;99.90;;;;;;4999741;28;20042;-38
2023/01/13 07:35:43;;;;;;;11.27;2.63;;;7.60;99.90;;;;;;5015371;28;20404;-38
2023/01/13 07:38:09;;;;;;;13.88;3.10;;;7.70;99.90;;;;;;5009028;28;20045;-38
2023/01/13 07:40:35;;;;;;;14.77;2.83;;;7.70;99.90;;;;;;5013007;28;20046;-38
2023/01/13 07:45:46;;;;;;;18.95;3.60;;;7.70;99.90;;;;;;5000367;28;20566;-38
2023/01/13 07:48:12;;;;;;;18.30;3.63;;;7.70;99.90;;;;;;5005773;28;20039;-38
2023/01/13 07:50:37;;;;;;;15.63;3.58;;;7.70;99.90;;;;;;4993142;28;20109;-38
2023/01/13 07:53:03;;;;;;;18.20;2.67;;;7.70;99.90;;;;;;5007574;28;20113;-39
2023/01/13 07:55:29;;;;;;;16.88;3.78;;;7.60;99.90;;;;;;5013285;28;20142;-38
2023/01/13 07:57:55;;;;;;;11.05;2.92;;;7.60;99.90;;;;;;4991258;28;20408;-37
2023/01/13 08:00:21;;;;;;;14.93;3.15;;;7.70;99.90;;;;;;5000062;28;20522;-38
2023/01/13 08:02:47;;;;;;;18.88;3.75;;;7.60;99.90;;;;;;4995207;28;20439;-38
2023/01/13 08:05:13;;;;;;;15.88;3.08;;;7.60;99.90;;;;;;5009032;28;20034;-38
2023/01/13 08:07:39;;;;;;;13.70;3.25;;;7.60;99.90;;;;;;5009760;28;20033;-38
2023/01/13 08:10:05;;;;;;;17.55;3.60;;;7.60;99.90;;;;;;4996202;28;20034;-38
2023/01/13 08:15:16;;;;;;;14.52;2.95;;;7.50;99.90;;;;;;5001092;28;20103;-38
2023/01/13 08:17:41;;;;;;;14.38;3.13;;;7.50;99.90;;;;;;5008407;28;20434;-38
2023/01/13 08:20:08;;;;;;;20.15;3.28;;;7.50;99.90;;;;;;5002635;28;20142;-38
2023/01/13 08:22:33;;;;;;;15.80;3.45;;;7.60;99.90;;;;;;5006057;28;20041;-37
2023/01/13 08:24:59;;;;;;;21.75;3.60;;;7.50;99.90;;;;;;5004269;28;20115;-38
2023/01/13 08:27:25;;;;;;;14.38;2.92;;;7.60;99.90;;;;;;5009792;28;20527;-38
2023/01/13 08:29:51;;;;;;;18.55;3.63;;;7.50;99.90;;;;;;5026123;28;20041;-38
2023/01/13 08:32:17;;;;;;;16.60;3.22;;;7.40;99.90;;;;;;5015056;28;20084;-38
2023/01/13 08:34:42;;;;;;;14.07;2.78;;;7.40;99.90;;;;;;5012726;28;20025;-38
2023/01/13 08:37:08;;;;;;;18.92;3.45;;;7.40;99.90;;;;;;5013684;28;20031;-38
2023/01/13 08:39:35;;;;;;;15.90;4.05;;;7.30;99.90;;;;;;5013025;28;20388;-37
2023/01/13 08:42:02;;;;;;;22.35;4.50;;;7.30;99.90;;;;;;5002115;28;20038;-39
2023/01/13 08:44:30;;;;;;;17.80;4.07;;;7.30;99.90;;;;;;5023885;28;20035;-39
2023/01/13 08:46:57;;;;;;;13.80;3.90;;;7.30;99.90;;;;;;5025188;28;20077;-41
2023/01/13 08:49:24;;;;;;;20.65;7.35;;;7.30;99.90;;;;;;5010464;28;20502;-39
2023/01/13 08:51:51;;;;;;;23.20;6.55;;;7.30;99.90;;;;;;5010425;28;20044;-39
2023/01/13 08:54:17;;;;;;;29.48;9.13;;;7.30;99.90;;;;;;5008097;28;20371;-39
2023/01/13 08:56:45;;;;;;;22.40;5.88;;;7.30;99.90;;;;;;5000315;28;20042;-40
2023/01/13 08:59:18;;;;;;;21.80;5.65;;;7.30;99.90;;;;;;5013083;28;20563;-39
2023/01/13 09:02:42;;;;;;;23.92;6.78;;;7.30;99.90;;;;;;5008221;28;20048;-39
2023/01/13 09:05:11;;;;;;;21.00;6.35;;;7.30;99.90;;;;;;5000688;28;20049;-38
2023/01/13 09:07:38;;;;;;;15.82;3.67;;;7.30;99.90;;;;;;5014805;28;20104;-38
2023/01/13 09:10:06;;;;;;;15.15;4.97;;;7.40;99.90;;;;;;5012149;28;20109;-39
2023/01/13 09:15:17;;;;;;;21.55;6.65;;;7.40;99.90;;;;;;5006623;28;20042;-39
2023/01/13 09:17:44;;;;;;;19.77;7.03;;;7.40;99.90;;;;;;5008071;28;20117;-39
2023/01/13 09:20:11;;;;;;;16.65;5.47;;;7.40;99.90;;;;;;5013838;28;20099;-40
2023/01/13 09:22:39;;;;;;;15.13;5.68;;;7.40;99.90;;;;;;5015326;28;20553;-41
2023/01/13 09:25:05;;;;;;;18.35;4.35;;;7.40;99.90;;;;;;5010713;28;20436;-39
2023/01/13 09:27:31;;;;;;;20.65;6.30;;;7.50;99.90;;;;;;5014161;28;20065;-39
2023/01/13 09:29:57;;;;;;;29.98;8.18;;;7.50;99.90;;;;;;5010090;28;20097;-39
2023/01/13 09:32:23;;;;;;;35.17;12.57;;;7.50;99.90;;;;;;5022777;28;20029;-39
2023/01/13 09:35:00;;;;;;;8.50;3.17;;;7.50;99.90;;;;;;5016544;28;20034;-41
2023/01/13 09:37:33;;;;;;;21.38;4.40;;;7.50;99.90;;;;;;5016598;28;20037;-39
2023/01/13 09:39:59;;;;;;;22.80;4.32;;;7.60;99.90;;;;;;5010115;28;20494;-39
2023/01/13 09:49:27;;;;;;;14.57;3.45;;;7.70;99.90;;;;;;5004127;28;20045;-39
2023/01/13 09:52:26;;;;;;;21.75;4.30;;;7.70;99.90;;;;;;5019701;28;20430;-39
2023/01/13 09:55:04;;;;;;;17.02;3.65;;;7.80;99.90;;;;;;4986701;28;20129;-39
2023/01/13 09:57:33;;;;;;;14.10;3.97;;;7.80;99.90;;;;;;5009735;28;20034;-39
2023/01/13 09:59:59;;;;;;;18.95;4.05;;;7.80;99.90;;;;;;4997694;28;20073;-40
2023/01/13 10:02:31;;;;;;;15.63;4.47;;;7.90;99.90;;;;;;5018886;28;20099;-39
2023/01/13 10:05:23;;;;;;;18.73;3.90;;;7.90;99.90;;;;;;5010000;28;20049;-38
2023/01/13 10:08:07;;;;;;;24.15;4.43;;;8.00;99.90;;;;;;5009790;28;20083;-39
2023/01/13 10:10:37;;;;;;;18.08;3.97;;;8.00;99.90;;;;;;5009495;28;20091;-39
2023/01/13 10:13:18;;;;;;;15.82;3.72;;;8.00;99.90;;;;;;4984748;28;20042;-39
2023/01/13 10:16:27;;;;;;;14.00;3.92;;;7.90;99.90;;;;;;5008265;28;20348;-39
2023/01/13 10:19:05;;;;;;;14.95;4.03;;;7.90;99.90;;;;;;4980246;28;20089;-39
2023/01/13 10:21:59;;;;;;;19.48;3.85;;;7.90;99.90;;;;;;5003978;28;20073;-39
2023/01/13 10:24:27;;;;;;;;;;;7.90;99.90;;;;;;5020190;28;20041;-38
2023/01/13 10:27:04;;;;;;;22.90;5.05;;;7.90;99.90;;;;;;5030784;28;19984;-38
2023/01/13 10:29:31;;;;;;;15.50;3.50;;;7.80;99.90;;;;;;5006177;28;20399;-39
2023/01/13 10:31:58;;;;;;;25.42;5.38;;;7.80;99.90;;;;;;5001089;28;20046;-39
2023/01/13 10:34:26;;;;;;;20.58;5.80;;;7.70;99.90;;;;;;5004559;28;20034;-39
2023/01/13 10:37:06;;;;;;;14.35;4.43;;;7.70;99.90;;;;;;5021328;28;20046;-40
2023/01/13 10:39:47;;;;;;;24.20;5.10;;;7.70;99.90;;;;;;5012174;28;20038;-39
2023/01/13 10:42:18;;;;;;;19.17;4.28;;;7.70;99.90;;;;;;5006890;28;20125;-39
2023/01/13 10:45:04;;;;;;;17.98;3.92;;;7.70;99.90;;;;;;5004891;28;20113;-39
2023/01/13 10:47:35;;;;;;;18.73;4.05;;;7.80;99.90;;;;;;5007621;28;20399;-39
2023/01/13 10:50:10;;;;;;;22.92;5.18;;;7.80;99.90;;;;;;5001566;28;20528;-39
2023/01/13 10:52:41;;;;;;;23.13;4.55;;;7.80;99.90;;;;;;5002768;28;20117;-39
2023/01/13 10:55:33;;;;;;;21.42;6.85;;;7.80;99.90;;;;;;5009820;28;20030;-39
2023/01/13 10:58:15;;;;;;;22.30;5.65;;;7.80;99.90;;;;;;5001588;28;20033;-39
2023/01/13 11:00:42;;;;;;;21.00;4.20;;;7.80;99.90;;;;;;4994133;28;20389;-39
2023/01/13 11:03:23;;;;;;;23.05;5.50;;;7.80;99.90;;;;;;5003017;28;20142;-38
2023/01/13 11:05:53;;;;;;;26.65;4.70;;;7.80;99.90;;;;;;5008550;28;20472;-38
2023/01/13 11:08:23;;;;;;;13.32;4.13;;;7.80;99.90;;;;;;5006156;28;20087;-39
2023/01/13 11:10:53;;;;;;;17.35;4.22;;;7.80;99.90;;;;;;5007446;28;20042;-38
2023/01/13 11:13:26;;;;;;;17.70;4.30;;;7.80;99.90;;;;;;5016925;28;20040;-39
2023/01/13 11:16:11;;;;;;;18.60;4.60;;;7.80;99.90;;;;;;5000886;28;20524;-39
2023/01/13 11:19:12;;;;;;;20.23;4.13;;;7.80;99.90;;;;;;5013483;28;20163;-39
2023/01/13 11:22:04;;;;;;;22.48;4.20;;;7.90;99.90;;;;;;5022944;28;20049;-39
2023/01/13 11:25:10;;;;;;;17.02;4.45;;;7.90;99.90;;;;;;4989224;28;20361;-37
2023/01/13 11:28:00;;;;;;;18.90;3.60;;;7.90;99.90;;;;;;4972449;28;20082;-37
2023/01/13 11:31:08;;;;;;;13.27;3.78;;;7.80;99.90;;;;;;4989726;28;20488;-37
2023/01/13 11:33:43;;;;;;;22.25;3.97;;;7.90;99.90;;;;;;5007672;28;20042;-37
2023/01/13 11:36:32;;;;;;;12.90;3.22;;;7.80;99.90;;;;;;4991587;28;20097;-37
2023/01/13 11:39:29;;;;;;;20.02;4.82;;;7.90;99.90;;;;;;4991731;28;20535;-37
2023/01/13 11:42:20;;;;;;;19.63;4.78;;;7.90;99.90;;;;;;4973934;28;20050;-37
2023/01/13 11:45:18;;;;;;;17.95;4.00;;;7.90;99.90;;;;;;4991281;28;20042;-37
2023/01/13 11:47:50;;;;;;;21.05;4.13;;;7.90;99.90;;;;;;5007635;28;20126;-37
2023/01/13 11:50:52;;;;;;;17.60;3.80;;;7.90;99.90;;;;;;4991609;28;20086;-37
2023/01/13 11:53:45;;;;;;;21.33;4.60;;;7.90;99.90;;;;;;4989987;28;20050;-37
2023/01/13 11:56:39;;;;;;;19.52;3.85;;;7.90;99.90;;;;;;5007671;28;20396;-38
2023/01/13 11:59:14;;;;;;;21.60;4.10;;;7.80;99.90;;;;;;5008529;28;20074;-38
2023/01/13 12:01:46;;;;;;;16.40;4.40;;;7.80;99.90;;;;;;5011264;28;20038;-38
2023/01/13 12:04:35;;;;;;;23.75;7.88;;;7.80;99.90;;;;;;5011730;28;20396;-38
2023/01/13 12:07:20;;;;;;;24.13;5.90;;;7.80;99.90;;;;;;5011512;28;20039;-38
2023/01/13 12:09:48;;;;;;;25.35;5.85;;;7.80;99.90;;;;;;4994804;28;20368;-38
2023/01/13 12:12:49;;;;;;;21.13;5.18;;;7.90;99.90;;;;;;5011186;28;20484;-38
2023/01/13 12:15:35;;;;;;;21.73;4.90;;;8.00;99.90;;;;;;5010997;28;20074;-38
2023/01/13 12:18:00;;;;;;;23.58;5.82;;;8.00;99.90;;;;;;4995005;28;20461;-38
2023/01/13 12:20:40;;;;;;;20.13;5.35;;;8.00;99.90;;;;;;5010872;28;20092;-37
2023/01/13 12:23:28;;;;;;;19.77;4.38;;;8.00;99.90;;;;;;4994776;28;20042;-38
2023/01/13 12:26:00;;;;;;;17.40;4.40;;;8.00;99.90;;;;;;4994649;28;20419;-38
2023/01/13 12:28:47;;;;;;;20.48;4.68;;;8.00;99.90;;;;;;5009406;28;20117;-38
2023/01/13 12:31:17;;;;;;;15.77;3.38;;;8.00;99.90;;;;;;5033386;28;20069;-38
2023/01/13 12:34:12;;;;;;;16.08;3.53;;;8.10;99.90;;;;;;5031809;28;20037;-38
2023/01/13 12:36:59;;;;;;;15.75;3.33;;;8.20;99.90;;;;;;5049853;28;20375;-38
2023/01/13 12:39:31;;;;;;;15.65;3.60;;;8.10;99.90;;;;;;5028193;28;20061;-38
2023/01/13 12:45:09;;;;;;;15.57;3.58;;;8.20;99.90;;;;;;4994426;28;20093;-37
2023/01/13 12:47:42;;;;;;;16.38;3.83;;;8.10;99.90;;;;;;4993808;28;20061;-37
2023/01/13 12:50:25;;;;;;;16.10;3.35;;;8.10;99.90;;;;;;4994367;28;20034;-38
2023/01/13 12:52:56;;;;;;;12.90;3.28;;;8.10;99.90;;;;;;4994053;28;20452;-38
2023/01/13 12:55:31;;;;;;;14.82;3.15;;;8.10;99.90;;;;;;4994275;28;20121;-38
2023/01/13 12:57:57;;;;;;;14.45;3.58;;;8.00;99.90;;;;;;4993986;28;20056;-38
2023/01/13 13:00:33;;;;;;;10.95;3.22;;;8.00;99.90;;;;;;4994185;28;20038;-38
2023/01/13 13:03:26;;;;;;;13.43;3.40;;;8.00;99.90;;;;;;4993791;28;20049;-38
2023/01/13 13:06:07;;;;;;;19.05;3.03;;;8.00;99.90;;;;;;4966645;28;20089;-38
2023/01/13 13:08:45;;;;;;;15.57;3.90;;;8.00;99.90;;;;;;4977473;28;20045;-38
2023/01/13 13:13:16;;;;;;;16.58;3.63;;;8.00;99.90;;;;;;4992856;28;20043;-38
2023/01/13 13:14:13;;;;;;;12.15;3.63;;;8.00;99.90;;;;;;4994990;28;20478;-37
2023/01/13 13:16:48;;;;;;;11.73;2.92;;;8.00;99.90;;;;;;4993949;28;20384;-37
2023/01/13 13:19:17;;;;;;;19.80;3.00;;;8.00;99.90;;;;;;4992546;28;20092;-38
2023/01/13 13:22:16;;;;;;;12.27;3.05;;;8.00;99.90;;;;;;4991743;28;20069;-38
2023/01/13 13:24:48;;;;;;;14.35;2.72;;;8.00;99.90;;;;;;4987934;28;20201;-38
2023/01/13 13:27:22;;;;;;;15.07;3.15;;;8.10;99.90;;;;;;4991827;28;20034;-38
2023/01/13 13:29:50;;;;;;;12.32;2.95;;;8.10;99.90;;;;;;4992314;28;20066;-38
2023/01/13 13:32:46;;;;;;;9.15;2.38;;;8.10;99.90;;;;;;4991830;28;20536;-38
2023/01/13 13:35:22;;;;;;;9.38;2.45;;;8.20;99.90;;;;;;4994257;28;20042;-39
2023/01/13 13:47:05;;;;;;;12.85;2.50;;;8.20;99.90;;;;;;5013073;28;20053;-40
2023/01/13 13:49:44;;;;;;;12.93;2.63;;;8.20;99.90;;;;;;5005663;28;20038;-39
2023/01/13 13:52:16;;;;;;;13.25;2.72;;;8.20;99.90;;;;;;5008789;28;20038;-38
2023/01/13 13:54:50;;;;;;;11.23;2.67;;;8.10;99.90;;;;;;5001202;28;20034;-39
2023/01/13 13:57:28;;;;;;;10.25;2.78;;;8.20;99.90;;;;;;5007887;28;20133;-41
2023/01/13 13:59:57;;;;;;;11.50;2.17;;;8.20;99.90;;;;;;5025690;28;20075;-41
2023/01/13 14:02:33;;;;;;;9.18;2.40;;;8.20;99.90;;;;;;5018176;28;20065;-40
2023/01/13 14:05:16;;;;;;;12.80;2.45;;;8.20;99.90;;;;;;5019028;28;20041;-39
2023/01/13 14:07:44;;;;;;;12.30;2.65;;;8.30;99.90;;;;;;5022487;28;20037;-39
2023/01/13 14:10:21;;;;;;;7.05;2.28;;;8.30;99.90;;;;;;5013688;28;20033;-38
2023/01/13 14:12:47;;;;;;;10.48;2.67;;;8.30;99.90;;;;;;5013212;28;20037;-38